Time;durP1;ratioP1;P1;durP2;ratioP2;P2;SDS_P1;SDS_P2;PMS_P1;PMS_P2;Temp;Humidity;BMP_temperature;BMP_pressure;BME280_temperature;BME280_humidity;BME280_pressure;Samples;Min_cycle;Max_cycle;Signal;HPM_P1;HPM_P2
2020/12/11 00:00:23;;;;;;;19.67;9.95;;;;;;;;;;4821509;29;20058;-68
2020/12/11 00:02:49;;;;;;;20.10;9.65;;;;;;;;;;4823334;29;20409;-68
2020/12/11 00:05:16;;;;;;;20.25;9.57;;;;;;;;;;4821872;29;20050;-69
2020/12/11 00:07:44;;;;;;;19.25;9.15;;;;;;;;;;4830571;29;20126;-68
2020/12/11 00:10:12;;;;;;;20.30;9.95;;;;;;;;;;4817135;29;20061;-69
2020/12/11 00:12:39;;;;;;;18.55;10.75;;;;;;;;;;4822675;29;20491;-69
2020/12/11 00:15:05;;;;;;;20.23;10.25;;;;;;;;;;4826444;29;20058;-68
2020/12/11 00:17:32;;;;;;;19.58;9.32;;;;;;;;;;4825776;29;20406;-68
2020/12/11 00:19:59;;;;;;;19.00;9.75;;;;;;;;;;4823142;29;20046;-68
2020/12/11 00:22:25;;;;;;;18.83;9.82;;;;;;;;;;4819632;29;20054;-68
2020/12/11 00:24:51;;;;;;;17.35;9.10;;;;;;;;;;4821152;29;20122;-68
2020/12/11 00:27:18;;;;;;;16.73;9.13;;;;;;;;;;4822281;29;20415;-68
2020/12/11 00:29:44;;;;;;;20.40;9.65;;;;;;;;;;4821161;29;20050;-68
2020/12/11 00:32:11;;;;;;;18.33;9.68;;;;;;;;;;4822445;29;20049;-68
2020/12/11 00:34:38;;;;;;;16.03;9.00;;;;;;;;;;4824398;29;20111;-69
2020/12/11 00:37:06;;;;;;;18.38;9.88;;;;;;;;;;4823327;29;20715;-68
2020/12/11 00:39:33;;;;;;;18.73;10.05;;;;;;;;;;4822651;29;20056;-68
2020/12/11 00:41:59;;;;;;;17.30;9.70;;;;;;;;;;4822697;29;20054;-68
2020/12/11 00:44:26;;;;;;;21.90;10.23;;;;;;;;;;4824073;29;20054;-68
2020/12/11 00:46:53;;;;;;;17.50;9.15;;;;;;;;;;4823043;29;20098;-69
2020/12/11 00:49:19;;;;;;;16.20;8.60;;;;;;;;;;4830191;29;20066;-68
2020/12/11 00:51:46;;;;;;;19.42;9.63;;;;;;;;;;4817401;29;20598;-68
2020/12/11 00:54:12;;;;;;;17.33;9.60;;;;;;;;;;4825371;29;20095;-68
2020/12/11 00:56:38;;;;;;;16.98;8.85;;;;;;;;;;4822647;29;20070;-67
2020/12/11 00:59:05;;;;;;;16.90;9.60;;;;;;;;;;4822738;29;20057;-69
2020/12/11 01:01:35;;;;;;;19.63;9.80;;;;;;;;;;4820957;29;20062;-68
2020/12/11 01:04:01;;;;;;;18.70;9.55;;;;;;;;;;4823104;29;20114;-69
2020/12/11 01:06:28;;;;;;;19.60;9.68;;;;;;;;;;4822091;29;20050;-68
2020/12/11 01:08:54;;;;;;;19.17;9.23;;;;;;;;;;4822971;29;20047;-68
2020/12/11 01:11:20;;;;;;;19.70;9.98;;;;;;;;;;4824012;29;20076;-68
2020/12/11 01:13:46;;;;;;;18.48;9.45;;;;;;;;;;4829279;29;20116;-69
2020/12/11 01:16:13;;;;;;;17.92;10.32;;;;;;;;;;4822184;29;20042;-68
2020/12/11 01:18:39;;;;;;;17.73;10.02;;;;;;;;;;4822939;29;20148;-69
2020/12/11 01:21:05;;;;;;;18.45;10.27;;;;;;;;;;4821232;29;20060;-69
2020/12/11 01:23:32;;;;;;;16.75;9.50;;;;;;;;;;4823728;29;20042;-68
2020/12/11 01:25:58;;;;;;;16.70;9.73;;;;;;;;;;4826294;29;20079;-68
2020/12/11 01:28:24;;;;;;;20.38;10.45;;;;;;;;;;4822483;29;20050;-68
2020/12/11 01:30:50;;;;;;;15.27;8.23;;;;;;;;;;4826820;29;20213;-68
2020/12/11 01:33:16;;;;;;;16.85;9.15;;;;;;;;;;4817940;29;20427;-69
2020/12/11 01:35:44;;;;;;;16.70;9.15;;;;;;;;;;4822233;29;20057;-69
2020/12/11 01:38:10;;;;;;;13.40;7.68;;;;;;;;;;4821457;29;20074;-69
2020/12/11 01:40:36;;;;;;;18.67;9.80;;;;;;;;;;4822750;29;20046;-68
2020/12/11 01:43:03;;;;;;;19.83;10.07;;;;;;;;;;4822950;29;20046;-68
2020/12/11 01:45:29;;;;;;;19.25;10.10;;;;;;;;;;4822496;29;20065;-68
2020/12/11 01:47:55;;;;;;;17.27;9.50;;;;;;;;;;4821881;29;20046;-68
2020/12/11 01:50:21;;;;;;;21.95;10.98;;;;;;;;;;4821355;29;20585;-68
2020/12/11 01:52:48;;;;;;;17.83;10.55;;;;;;;;;;4821065;29;20129;-69
2020/12/11 01:55:14;;;;;;;16.77;10.05;;;;;;;;;;4820790;29;20058;-68
2020/12/11 01:57:41;;;;;;;17.35;9.18;;;;;;;;;;4821387;29;20063;-68
2020/12/11 02:00:10;;;;;;;18.25;10.27;;;;;;;;;;4819751;29;20058;-68
2020/12/11 02:02:37;;;;;;;21.15;10.50;;;;;;;;;;4820680;29;20068;-69
2020/12/11 02:05:07;;;;;;;18.63;10.43;;;;;;;;;;4827414;29;20452;-69
2020/12/11 02:07:38;;;;;;;21.30;10.75;;;;;;;;;;4822428;29;20054;-68
2020/12/11 02:10:05;;;;;;;20.92;10.18;;;;;;;;;;4820208;29;20030;-68
2020/12/11 02:12:31;;;;;;;15.48;9.80;;;;;;;;;;4822181;29;20081;-69
2020/12/11 02:14:58;;;;;;;25.52;11.82;;;;;;;;;;4822109;29;20092;-69
2020/12/11 02:17:27;;;;;;;13.67;7.53;;;;;;;;;;4821556;29;20110;-68
2020/12/11 02:19:54;;;;;;;20.42;10.40;;;;;;;;;;4821340;29;20046;-69
2020/12/11 02:22:20;;;;;;;16.70;9.50;;;;;;;;;;4821092;29;20194;-69
2020/12/11 02:24:48;;;;;;;13.68;6.78;;;;;;;;;;4821597;29;20356;-69
2020/12/11 02:27:14;;;;;;;15.30;7.57;;;;;;;;;;4828330;29;20049;-68
2020/12/11 02:29:40;;;;;;;13.55;7.28;;;;;;;;;;4822701;29;20098;-68
2020/12/11 02:32:06;;;;;;;15.13;8.70;;;;;;;;;;4820256;29;20050;-68
2020/12/11 02:34:33;;;;;;;14.38;9.10;;;;;;;;;;4821153;29;20103;-68
2020/12/11 02:37:00;;;;;;;18.48;8.75;;;;;;;;;;4818880;29;20058;-68
2020/12/11 02:39:26;;;;;;;15.05;8.25;;;;;;;;;;4821805;29;20450;-68
2020/12/11 02:41:52;;;;;;;15.13;7.78;;;;;;;;;;4820219;29;20046;-68
2020/12/11 02:44:19;;;;;;;12.48;7.10;;;;;;;;;;4821349;29;20419;-68
2020/12/11 02:46:45;;;;;;;14.65;7.47;;;;;;;;;;4820136;29;20050;-68
2020/12/11 02:49:12;;;;;;;15.43;8.30;;;;;;;;;;4819985;29;20039;-68
2020/12/11 02:51:38;;;;;;;13.82;7.30;;;;;;;;;;4821272;29;20118;-68
2020/12/11 02:54:04;;;;;;;15.70;8.77;;;;;;;;;;4821208;29;20054;-69
2020/12/11 02:56:31;;;;;;;16.65;9.02;;;;;;;;;;4823844;29;20042;-68
2020/12/11 02:58:57;;;;;;;15.95;9.52;;;;;;;;;;4821359;29;20106;-68
2020/12/11 03:01:26;;;;;;;15.73;9.18;;;;;;;;;;4817806;29;20465;-69
2020/12/11 03:03:55;;;;;;;16.58;8.95;;;;;;;;;;4820872;29;20058;-68
2020/12/11 03:06:28;;;;;;;16.88;9.27;;;;;;;;;;4819860;29;20469;-68
2020/12/11 03:08:55;;;;;;;18.80;10.00;;;;;;;;;;4820844;29;20051;-68
2020/12/11 03:11:21;;;;;;;15.95;9.55;;;;;;;;;;4824038;29;20076;-68
2020/12/11 03:13:48;;;;;;;16.25;9.27;;;;;;;;;;4821577;29;20492;-69
2020/12/11 03:16:16;;;;;;;19.63;9.57;;;;;;;;;;4820768;29;20556;-68
2020/12/11 03:18:46;;;;;;;20.60;9.68;;;;;;;;;;4823824;29;20058;-68
2020/12/11 03:21:12;;;;;;;20.20;10.57;;;;;;;;;;4823422;29;20482;-68
2020/12/11 03:23:38;;;;;;;17.50;8.60;;;;;;;;;;4825035;29;20042;-69
2020/12/11 03:26:04;;;;;;;18.25;9.70;;;;;;;;;;4824160;29;20046;-69
2020/12/11 03:28:31;;;;;;;15.15;9.18;;;;;;;;;;4823346;29;20042;-68
2020/12/11 03:30:57;;;;;;;17.67;9.50;;;;;;;;;;4822694;29;20440;-69
2020/12/11 03:33:23;;;;;;;17.60;9.52;;;;;;;;;;4823500;29;20068;-68
2020/12/11 03:35:51;;;;;;;19.98;10.32;;;;;;;;;;4824174;29;20069;-68
2020/12/11 03:38:17;;;;;;;17.70;8.98;;;;;;;;;;4823229;29;20042;-68
2020/12/11 03:40:43;;;;;;;15.88;8.88;;;;;;;;;;4824093;29;20549;-68
2020/12/11 03:43:09;;;;;;;17.83;9.02;;;;;;;;;;4825453;29;20145;-68
2020/12/11 03:45:36;;;;;;;15.15;8.32;;;;;;;;;;4829365;29;20061;-68
2020/12/11 03:48:02;;;;;;;15.32;8.52;;;;;;;;;;4822627;29;20043;-68
2020/12/11 03:50:28;;;;;;;19.25;9.38;;;;;;;;;;4824160;29;20042;-68
2020/12/11 03:52:54;;;;;;;16.60;9.60;;;;;;;;;;4821690;29;20046;-68
2020/12/11 03:55:20;;;;;;;15.10;8.32;;;;;;;;;;4822795;29;20054;-68
2020/12/11 03:57:46;;;;;;;16.25;8.70;;;;;;;;;;4822477;29;20054;-68
2020/12/11 04:00:13;;;;;;;17.13;8.93;;;;;;;;;;4822711;29;20042;-68
2020/12/11 04:02:39;;;;;;;14.68;9.02;;;;;;;;;;4822980;29;20050;-68
2020/12/11 04:05:06;;;;;;;17.27;9.63;;;;;;;;;;4823533;29;20170;-68
2020/12/11 04:07:32;;;;;;;17.15;9.38;;;;;;;;;;4822399;29;20049;-69
2020/12/11 04:09:58;;;;;;;16.67;8.50;;;;;;;;;;4823189;29;20050;-68
2020/12/11 04:12:24;;;;;;;15.18;8.70;;;;;;;;;;4823456;29;20106;-68
2020/12/11 04:14:51;;;;;;;19.38;9.50;;;;;;;;;;4822491;29;20107;-69
2020/12/11 04:17:18;;;;;;;16.52;9.13;;;;;;;;;;4821900;29;20526;-68
2020/12/11 04:19:44;;;;;;;16.73;8.93;;;;;;;;;;4818269;29;20069;-68
2020/12/11 04:22:10;;;;;;;14.60;8.38;;;;;;;;;;4826858;29;20295;-69
2020/12/11 04:24:37;;;;;;;13.32;8.13;;;;;;;;;;4822570;29;20138;-68
2020/12/11 04:27:03;;;;;;;16.88;9.23;;;;;;;;;;4821458;29;20449;-68
2020/12/11 04:29:29;;;;;;;13.77;7.97;;;;;;;;;;4822845;29;20146;-68
2020/12/11 04:31:55;;;;;;;15.18;8.40;;;;;;;;;;4823649;29;20511;-68
2020/12/11 04:34:22;;;;;;;11.40;7.47;;;;;;;;;;4819825;29;20046;-69
2020/12/11 04:36:49;;;;;;;11.00;6.90;;;;;;;;;;4825538;29;20304;-68
2020/12/11 04:39:15;;;;;;;11.00;6.63;;;;;;;;;;4829985;29;20055;-68
2020/12/11 04:41:43;;;;;;;12.27;7.13;;;;;;;;;;4822859;29;20054;-68
2020/12/11 04:44:09;;;;;;;13.18;6.63;;;;;;;;;;4822948;29;20133;-68
2020/12/11 04:46:35;;;;;;;11.75;7.10;;;;;;;;;;4821373;29;20050;-68
2020/12/11 04:49:02;;;;;;;9.65;5.85;;;;;;;;;;4822765;29;20070;-68
2020/12/11 04:51:32;;;;;;;10.93;6.32;;;;;;;;;;4822268;29;20046;-68
2020/12/11 04:53:59;;;;;;;9.40;6.25;;;;;;;;;;4823120;29;20054;-68
2020/12/11 04:56:26;;;;;;;9.00;5.95;;;;;;;;;;4821539;29;20066;-68
2020/12/11 04:58:53;;;;;;;11.27;6.38;;;;;;;;;;4820363;29;20141;-68
2020/12/11 05:01:32;;;;;;;11.57;7.35;;;;;;;;;;4820147;29;20061;-69
2020/12/11 05:04:00;;;;;;;10.90;6.55;;;;;;;;;;4821583;29;20042;-68
2020/12/11 05:06:28;;;;;;;10.32;6.03;;;;;;;;;;4821019;29;20106;-69
2020/12/11 05:09:10;;;;;;;11.50;6.97;;;;;;;;;;4821666;29;20403;-68
2020/12/11 05:11:37;;;;;;;12.52;6.43;;;;;;;;;;4822605;29;20102;-68
2020/12/11 05:14:03;;;;;;;9.45;5.78;;;;;;;;;;4822910;29;20523;-69
2020/12/11 05:16:29;;;;;;;9.32;5.53;;;;;;;;;;4816673;29;20106;-69
2020/12/11 05:19:02;;;;;;;8.68;5.50;;;;;;;;;;4821358;29;20072;-69
2020/12/11 05:21:30;;;;;;;9.73;6.00;;;;;;;;;;4822307;29;20047;-69
2020/12/11 05:23:58;;;;;;;7.95;4.85;;;;;;;;;;4821366;29;20042;-69
2020/12/11 05:26:25;;;;;;;9.68;5.60;;;;;;;;;;4822041;29;20042;-69
2020/12/11 05:28:51;;;;;;;9.45;6.00;;;;;;;;;;4820891;29;20084;-69
2020/12/11 05:31:17;;;;;;;10.50;5.95;;;;;;;;;;4822641;29;20046;-69
2020/12/11 05:34:02;;;;;;;10.13;5.43;;;;;;;;;;4824138;29;20046;-69
2020/12/11 05:36:41;;;;;;;7.95;4.65;;;;;;;;;;4821819;29;20134;-69
2020/12/11 05:39:07;;;;;;;10.40;5.70;;;;;;;;;;4821134;29;20103;-69
2020/12/11 05:41:34;;;;;;;9.75;6.00;;;;;;;;;;4827503;29;20046;-69
2020/12/11 05:44:00;;;;;;;8.63;5.32;;;;;;;;;;4821124;29;20069;-69
2020/12/11 05:46:32;;;;;;;8.98;5.65;;;;;;;;;;4821470;29;20456;-69
2020/12/11 05:49:00;;;;;;;9.32;5.60;;;;;;;;;;4815618;29;20046;-68
2020/12/11 05:51:35;;;;;;;8.23;5.45;;;;;;;;;;4821338;29;20049;-68
2020/12/11 05:54:05;;;;;;;9.95;6.05;;;;;;;;;;4820445;29;20107;-68
2020/12/11 05:56:35;;;;;;;10.13;6.47;;;;;;;;;;4823391;29;20061;-69
2020/12/11 05:59:02;;;;;;;9.57;5.40;;;;;;;;;;4820608;29;20069;-68
2020/12/11 06:01:30;;;;;;;9.13;5.80;;;;;;;;;;4821250;29;20054;-68
2020/12/11 06:03:56;;;;;;;9.07;6.25;;;;;;;;;;4822266;29;20058;-68
2020/12/11 06:06:23;;;;;;;8.85;5.07;;;;;;;;;;4821194;29;20084;-69
2020/12/11 06:08:52;;;;;;;8.37;5.13;;;;;;;;;;4820253;29;20762;-69
2020/12/11 06:11:22;;;;;;;10.73;6.28;;;;;;;;;;4821337;29;20050;-68
2020/12/11 06:13:49;;;;;;;10.70;6.18;;;;;;;;;;4821703;29;20133;-69
2020/12/11 06:16:18;;;;;;;9.02;5.60;;;;;;;;;;4821759;29;20146;-69
2020/12/11 06:18:45;;;;;;;10.20;6.30;;;;;;;;;;4822172;29;20402;-69
2020/12/11 06:21:15;;;;;;;10.68;6.53;;;;;;;;;;4822475;29;20107;-69
2020/12/11 06:23:42;;;;;;;9.88;6.32;;;;;;;;;;4821581;29;20055;-69
2020/12/11 06:26:13;;;;;;;9.75;6.40;;;;;;;;;;4822376;29;20414;-69
2020/12/11 06:28:50;;;;;;;9.25;6.07;;;;;;;;;;4821597;29;20084;-69
2020/12/11 06:31:18;;;;;;;11.35;6.95;;;;;;;;;;4822489;29;20050;-68
2020/12/11 06:33:45;;;;;;;10.02;6.10;;;;;;;;;;4819592;29;20419;-69
2020/12/11 06:36:12;;;;;;;10.30;6.53;;;;;;;;;;4821510;29;20065;-68
2020/12/11 06:38:42;;;;;;;13.13;6.22;;;;;;;;;;4821781;29;20566;-68
2020/12/11 06:41:08;;;;;;;12.07;6.93;;;;;;;;;;4821984;29;20081;-69
2020/12/11 06:43:41;;;;;;;10.63;6.75;;;;;;;;;;4820522;29;20053;-69
2020/12/11 06:46:21;;;;;;;11.43;5.82;;;;;;;;;;4821155;29;20458;-69
2020/12/11 06:49:06;;;;;;;9.45;6.03;;;;;;;;;;4822024;29;20046;-69
2020/12/11 06:51:33;;;;;;;9.80;6.30;;;;;;;;;;4821833;29;20457;-68
2020/12/11 06:53:59;;;;;;;8.48;5.63;;;;;;;;;;4824746;29;20503;-69
2020/12/11 06:56:44;;;;;;;10.85;5.93;;;;;;;;;;4825101;29;20086;-68
2020/12/11 06:59:22;;;;;;;12.50;5.68;;;;;;;;;;4825238;29;20054;-68
2020/12/11 07:01:52;;;;;;;9.82;5.78;;;;;;;;;;4822507;29;20491;-68
2020/12/11 07:04:20;;;;;;;8.60;5.85;;;;;;;;;;4825093;29;20384;-68
2020/12/11 07:06:49;;;;;;;8.63;5.28;;;;;;;;;;4825328;29;20118;-69
2020/12/11 07:09:15;;;;;;;9.82;5.55;;;;;;;;;;4824486;29;20125;-68
2020/12/11 07:11:42;;;;;;;10.50;5.57;;;;;;;;;;4821478;29;20122;-69
2020/12/11 07:14:09;;;;;;;13.40;5.30;;;;;;;;;;4825355;29;20047;-69
2020/12/11 07:16:39;;;;;;;11.68;6.03;;;;;;;;;;4824313;29;20049;-69
2020/12/11 07:19:06;;;;;;;8.45;5.22;;;;;;;;;;4824991;29;20560;-68
2020/12/11 07:21:33;;;;;;;8.57;5.00;;;;;;;;;;4824787;29;20129;-69
2020/12/11 07:24:00;;;;;;;9.85;5.50;;;;;;;;;;4823992;29;20091;-69
2020/12/11 07:26:27;;;;;;;9.02;5.43;;;;;;;;;;4824242;29;20085;-69
2020/12/11 07:29:10;;;;;;;8.50;5.13;;;;;;;;;;4824918;29;20140;-68
2020/12/11 07:31:40;;;;;;;10.45;5.88;;;;;;;;;;4824836;29;20049;-69
2020/12/11 07:34:12;;;;;;;10.00;5.65;;;;;;;;;;4824525;29;20115;-69
2020/12/11 07:36:39;;;;;;;13.60;6.03;;;;;;;;;;4822837;29;20461;-69
2020/12/11 07:39:15;;;;;;;9.10;5.55;;;;;;;;;;4824632;29;20488;-69
2020/12/11 07:41:45;;;;;;;10.25;5.18;;;;;;;;;;4824241;29;20449;-68
2020/12/11 07:44:38;;;;;;;10.13;6.22;;;;;;;;;;4824119;29;20091;-69
2020/12/11 07:47:09;;;;;;;10.13;5.97;;;;;;;;;;4821621;29;20085;-68
2020/12/11 07:49:39;;;;;;;10.27;6.13;;;;;;;;;;4824604;29;20046;-68
2020/12/11 07:52:07;;;;;;;10.30;5.60;;;;;;;;;;4824484;29;20549;-69
2020/12/11 07:54:34;;;;;;;9.82;5.55;;;;;;;;;;4822165;29;20090;-69
2020/12/11 07:57:10;;;;;;;10.98;5.72;;;;;;;;;;4822789;29;20061;-68
2020/12/11 07:59:37;;;;;;;10.63;5.93;;;;;;;;;;4824589;29;20061;-68
2020/12/11 08:02:03;;;;;;;9.68;5.57;;;;;;;;;;4820771;29;20088;-69
2020/12/11 08:04:29;;;;;;;10.48;6.28;;;;;;;;;;4823513;29;20107;-69
2020/12/11 08:06:59;;;;;;;10.43;6.07;;;;;;;;;;4823202;29;20050;-69
2020/12/11 08:09:30;;;;;;;9.55;6.50;;;;;;;;;;4823969;29;20058;-68
2020/12/11 08:12:15;;;;;;;11.20;5.90;;;;;;;;;;4822560;29;20234;-68
2020/12/11 08:14:41;;;;;;;11.75;6.45;;;;;;;;;;4823072;29;20472;-69
2020/12/11 08:17:09;;;;;;;11.88;6.10;;;;;;;;;;4824096;29;20106;-68
2020/12/11 08:19:35;;;;;;;10.90;6.47;;;;;;;;;;4824814;29;20399;-69
2020/12/11 08:22:17;;;;;;;9.15;5.78;;;;;;;;;;4823230;29;20054;-69
2020/12/11 08:24:44;;;;;;;11.73;6.22;;;;;;;;;;4823007;29;20062;-68
2020/12/11 08:27:27;;;;;;;10.27;6.38;;;;;;;;;;4820775;29;20083;-68
2020/12/11 08:30:03;;;;;;;12.55;7.53;;;;;;;;;;4823643;29;20046;-68
2020/12/11 08:32:30;;;;;;;12.27;5.70;;;;;;;;;;4818165;29;20062;-69
2020/12/11 08:34:59;;;;;;;8.98;5.15;;;;;;;;;;4822823;29;20039;-68
2020/12/11 08:37:25;;;;;;;10.07;5.78;;;;;;;;;;4823708;29;20509;-68
2020/12/11 08:40:02;;;;;;;8.07;5.18;;;;;;;;;;4823554;29;20632;-69
2020/12/11 08:42:33;;;;;;;9.35;5.93;;;;;;;;;;4823262;29;20057;-68
2020/12/11 08:50:48;;;;;;;9.02;5.78;;;;;;;;;;4819343;29;20050;-68
2020/12/11 08:53:17;;;;;;;9.35;5.50;;;;;;;;;;4823725;29;20061;-69
2020/12/11 08:55:43;;;;;;;9.57;5.57;;;;;;;;;;4820049;29;20053;-68
2020/12/11 08:58:09;;;;;;;10.43;5.75;;;;;;;;;;4822094;29;20543;-68
2020/12/11 09:00:36;;;;;;;9.43;5.82;;;;;;;;;;4822227;29;20515;-68
2020/12/11 09:03:03;;;;;;;6.30;4.43;;;;;;;;;;4822872;29;20053;-69
2020/12/11 09:05:30;;;;;;;11.68;6.40;;;;;;;;;;4823394;29;20042;-69
2020/12/11 09:07:56;;;;;;;7.18;4.82;;;;;;;;;;4823242;29;20473;-69
2020/12/11 09:10:23;;;;;;;9.32;5.85;;;;;;;;;;4822838;29;20047;-68
2020/12/11 09:12:51;;;;;;;9.05;5.57;;;;;;;;;;4822480;29;20058;-68
2020/12/11 09:15:18;;;;;;;12.13;5.82;;;;;;;;;;4823135;29;20042;-69
2020/12/11 09:17:45;;;;;;;8.32;5.30;;;;;;;;;;4822914;29;20079;-69
2020/12/11 09:20:11;;;;;;;8.52;5.30;;;;;;;;;;4823403;29;20064;-69
2020/12/11 09:22:38;;;;;;;8.60;5.25;;;;;;;;;;4821798;29;20078;-69
2020/12/11 09:25:04;;;;;;;11.40;5.72;;;;;;;;;;4822852;29;20054;-69
2020/12/11 09:27:34;;;;;;;11.13;5.60;;;;;;;;;;4822205;29;20575;-69
2020/12/11 09:30:13;;;;;;;9.35;5.40;;;;;;;;;;4821912;29;20060;-69
2020/12/11 09:33:04;;;;;;;9.05;5.38;;;;;;;;;;4821201;29;20046;-69
2020/12/11 09:35:30;;;;;;;10.20;5.55;;;;;;;;;;4821932;29;20126;-69
2020/12/11 09:37:57;;;;;;;9.07;5.28;;;;;;;;;;4822436;29;20054;-69
2020/12/11 09:45:50;;;;;;;11.95;5.20;;;;;;;;;;4822849;29;20130;-69
2020/12/11 09:51:14;;;;;;;9.18;5.10;;;;;;;;;;4821294;29;20061;-69
2020/12/11 09:56:08;;;;;;;11.82;5.78;;;;;;;;;;4818442;29;20058;-69
2020/12/11 09:58:37;;;;;;;;;;;;;;;;;;4822548;29;20054;-69
2020/12/11 10:01:06;;;;;;;10.15;4.90;;;;;;;;;;4820918;29;20278;-69
2020/12/11 10:03:39;;;;;;;11.25;5.45;;;;;;;;;;4822621;29;20085;-69
2020/12/11 10:06:08;;;;;;;11.80;5.45;;;;;;;;;;4821533;29;20050;-68
2020/12/11 10:08:34;;;;;;;10.50;5.30;;;;;;;;;;4820218;29;20042;-68
2020/12/11 10:11:01;;;;;;;8.90;4.82;;;;;;;;;;4822384;29;20054;-69
2020/12/11 10:13:28;;;;;;;8.07;5.03;;;;;;;;;;4824215;29;20077;-69
2020/12/11 10:15:54;;;;;;;9.20;4.97;;;;;;;;;;4823605;29;20054;-69
2020/12/11 10:18:20;;;;;;;9.93;4.82;;;;;;;;;;4819447;29;20046;-69
2020/12/11 10:20:46;;;;;;;9.95;5.57;;;;;;;;;;4814685;29;20062;-69
2020/12/11 10:23:13;;;;;;;7.47;4.10;;;;;;;;;;4822377;29;20038;-68
2020/12/11 10:25:39;;;;;;;9.32;5.07;;;;;;;;;;4821800;29;20050;-69
2020/12/11 10:28:05;;;;;;;7.93;5.05;;;;;;;;;;4821163;29;20538;-69
2020/12/11 10:30:32;;;;;;;9.10;4.57;;;;;;;;;;4820266;29;20058;-68
2020/12/11 10:32:58;;;;;;;9.63;4.97;;;;;;;;;;4822237;29;20110;-69
2020/12/11 10:35:26;;;;;;;7.53;4.65;;;;;;;;;;4821961;29;20534;-68
2020/12/11 10:37:53;;;;;;;7.95;4.82;;;;;;;;;;4821413;29;20050;-68
2020/12/11 10:40:19;;;;;;;8.75;4.93;;;;;;;;;;4820625;29;20056;-68
2020/12/11 10:42:45;;;;;;;8.63;5.10;;;;;;;;;;4820804;29;20483;-69
2020/12/11 10:45:12;;;;;;;6.90;4.65;;;;;;;;;;4819543;29;20145;-69
2020/12/11 10:47:42;;;;;;;11.98;4.97;;;;;;;;;;4821586;29;20050;-68
2020/12/11 10:50:08;;;;;;;10.50;5.30;;;;;;;;;;4819209;29;20038;-69
2020/12/11 10:52:34;;;;;;;8.32;4.78;;;;;;;;;;4822356;29;20530;-68
2020/12/11 10:55:01;;;;;;;8.98;4.85;;;;;;;;;;4817820;29;20042;-69
2020/12/11 10:57:27;;;;;;;7.80;4.70;;;;;;;;;;4821206;29;20062;-68
2020/12/11 10:59:54;;;;;;;10.35;5.07;;;;;;;;;;4819267;29;20566;-68
2020/12/11 11:02:20;;;;;;;10.30;5.07;;;;;;;;;;4817156;29;20108;-68
2020/12/11 11:04:48;;;;;;;;;;;;;;;;;;4822165;29;20461;-68
2020/12/11 11:07:17;;;;;;;12.40;4.65;;;;;;;;;;4821556;29;19925;-69
2020/12/11 11:12:26;;;;;;;8.20;4.70;;;;;;;;;;4821077;29;20073;-68
2020/12/11 11:15:23;;;;;;;8.00;4.03;;;;;;;;;;4822013;29;20055;-69
2020/12/11 11:23:16;;;;;;;7.50;4.00;;;;;;;;;;4819394;29;20050;-69
2020/12/11 11:28:39;;;;;;;6.28;3.80;;;;;;;;;;4785848;29;20532;-68
2020/12/11 11:31:05;;;;;;;9.75;4.50;;;;;;;;;;4821668;29;20050;-69
2020/12/11 11:33:32;;;;;;;5.22;3.15;;;;;;;;;;4821040;29;20415;-69
2020/12/11 11:35:58;;;;;;;12.57;4.43;;;;;;;;;;4821411;29;20039;-69
2020/12/11 11:38:24;;;;;;;9.63;4.38;;;;;;;;;;4843650;29;20050;-69
2020/12/11 11:40:52;;;;;;;11.90;4.15;;;;;;;;;;4823688;29;20065;-69
2020/12/11 11:44:19;;;;;;;7.40;4.35;;;;;;;;;;4820561;29;20077;-69
2020/12/11 11:46:05;;;;;;;8.63;4.47;;;;;;;;;;4814965;29;20043;-68
2020/12/11 11:48:32;;;;;;;9.55;4.95;;;;;;;;;;4823618;29;20112;-68
2020/12/11 11:51:06;;;;;;;8.68;5.00;;;;;;;;;;4823480;29;20464;-69
2020/12/11 11:53:32;;;;;;;6.55;4.20;;;;;;;;;;4824264;29;20061;-68
2020/12/11 11:55:58;;;;;;;7.75;3.90;;;;;;;;;;4824242;29;20051;-68
2020/12/11 11:58:25;;;;;;;7.45;4.10;;;;;;;;;;4817857;29;20058;-68
2020/12/11 12:00:51;;;;;;;8.50;4.35;;;;;;;;;;4821254;29;20042;-68
2020/12/11 12:03:18;;;;;;;9.85;4.82;;;;;;;;;;4822358;29;20062;-68
2020/12/11 12:05:45;;;;;;;;;;;;;;;;;;4823803;29;20121;-68
2020/12/11 12:08:12;;;;;;;7.18;4.28;;;;;;;;;;4823510;29;19982;-69
2020/12/11 12:10:38;;;;;;;6.40;4.30;;;;;;;;;;4822452;29;20107;-68
2020/12/11 12:13:04;;;;;;;6.90;4.30;;;;;;;;;;4824333;29;20046;-68
2020/12/11 12:15:32;;;;;;;7.87;4.87;;;;;;;;;;4824897;29;20050;-68
2020/12/11 12:18:02;;;;;;;8.82;4.75;;;;;;;;;;4816027;29;20550;-68
2020/12/11 12:20:41;;;;;;;7.03;4.45;;;;;;;;;;4824779;29;20468;-68
2020/12/11 12:30:52;;;;;;;6.70;3.78;;;;;;;;;;4823775;29;20051;-68
2020/12/11 12:43:55;;;;;;;8.25;3.78;;;;;;;;;;4821298;29;20046;-68
2020/12/11 12:46:21;;;;;;;6.38;3.58;;;;;;;;;;4823628;29;20060;-68
2020/12/11 12:48:48;;;;;;;9.18;4.28;;;;;;;;;;4822467;29;20069;-68
2020/12/11 12:51:14;;;;;;;6.57;4.13;;;;;;;;;;4823031;29;20038;-68
2020/12/11 12:53:40;;;;;;;7.55;3.70;;;;;;;;;;4822333;29;20102;-68
2020/12/11 12:58:54;;;;;;;7.30;3.45;;;;;;;;;;4819348;29;20058;-68
2020/12/11 13:04:42;;;;;;;4.90;3.20;;;;;;;;;;4820116;29;20074;-68
2020/12/11 13:07:09;;;;;;;4.45;3.28;;;;;;;;;;4823723;29;20074;-68
2020/12/11 13:09:36;;;;;;;5.20;3.30;;;;;;;;;;4819334;29;20115;-69
2020/12/11 13:12:02;;;;;;;4.78;3.00;;;;;;;;;;4822275;29;20054;-68
2020/12/11 13:14:28;;;;;;;4.53;3.25;;;;;;;;;;4823173;29;20046;-68
2020/12/11 13:16:54;;;;;;;6.80;3.72;;;;;;;;;;4822948;29;20545;-68
2020/12/11 13:19:24;;;;;;;5.43;3.22;;;;;;;;;;4820436;29;20046;-68
2020/12/11 13:27:11;;;;;;;5.30;3.30;;;;;;;;;;4823093;29;20046;-68
2020/12/11 13:29:38;;;;;;;4.57;3.03;;;;;;;;;;4821275;29;20102;-69
2020/12/11 13:32:04;;;;;;;5.10;2.70;;;;;;;;;;4821333;29;20055;-68
2020/12/11 13:34:31;;;;;;;3.83;2.53;;;;;;;;;;4822844;29;20084;-68
2020/12/11 13:36:57;;;;;;;5.28;3.33;;;;;;;;;;4821875;29;20057;-69
2020/12/11 13:39:23;;;;;;;5.63;3.03;;;;;;;;;;4822586;29;20046;-68
2020/12/11 13:41:49;;;;;;;5.53;3.20;;;;;;;;;;4822249;29;20050;-68
2020/12/11 13:44:17;;;;;;;4.70;3.20;;;;;;;;;;4822100;29;20057;-68
2020/12/11 13:46:43;;;;;;;6.47;2.88;;;;;;;;;;4822869;29;20054;-68
2020/12/11 13:49:10;;;;;;;4.80;2.77;;;;;;;;;;4822685;29;20063;-68
2020/12/11 13:51:37;;;;;;;4.90;3.30;;;;;;;;;;4821911;29;21922;-68
2020/12/11 13:54:03;;;;;;;5.10;3.05;;;;;;;;;;4824149;29;20114;-68
2020/12/11 13:56:29;;;;;;;3.80;2.58;;;;;;;;;;4823572;29;20581;-69
2020/12/11 13:58:55;;;;;;;7.75;3.53;;;;;;;;;;4824470;29;20062;-68
2020/12/11 14:01:22;;;;;;;4.85;2.97;;;;;;;;;;4820630;29;20055;-68
2020/12/11 14:03:49;;;;;;;5.15;3.08;;;;;;;;;;4822345;29;20046;-68
2020/12/11 14:06:15;;;;;;;5.85;3.30;;;;;;;;;;4822201;29;20124;-69
2020/12/11 14:08:42;;;;;;;4.32;3.15;;;;;;;;;;4821413;29;20404;-68
2020/12/11 14:11:09;;;;;;;5.80;3.92;;;;;;;;;;4820715;29;20050;-68
2020/12/11 14:13:36;;;;;;;4.63;3.10;;;;;;;;;;4821935;29;20111;-68
2020/12/11 14:16:02;;;;;;;4.82;3.30;;;;;;;;;;4822423;29;20075;-68
2020/12/11 14:21:03;;;;;;;6.20;3.60;;;;;;;;;;4821754;29;20046;-68
2020/12/11 14:23:31;;;;;;;6.25;3.58;;;;;;;;;;4821866;29;20503;-68
2020/12/11 14:25:57;;;;;;;5.72;3.28;;;;;;;;;;4821771;29;20129;-68
2020/12/11 14:28:23;;;;;;;6.53;3.78;;;;;;;;;;4817155;29;20046;-68
2020/12/11 14:30:50;;;;;;;4.93;3.17;;;;;;;;;;4821297;29;20099;-69
2020/12/11 14:33:17;;;;;;;5.85;3.75;;;;;;;;;;4821718;29;20053;-68
2020/12/11 14:35:45;;;;;;;5.25;3.58;;;;;;;;;;4821887;29;20047;-68
2020/12/11 14:38:30;;;;;;;5.75;3.78;;;;;;;;;;4821792;29;20520;-68
2020/12/11 14:40:57;;;;;;;6.72;4.00;;;;;;;;;;4817420;29;20102;-69
2020/12/11 14:43:26;;;;;;;7.95;3.88;;;;;;;;;;4818136;29;20110;-68
2020/12/11 14:45:55;;;;;;;6.35;3.70;;;;;;;;;;4818662;29;20057;-68
2020/12/11 14:48:21;;;;;;;6.47;4.47;;;;;;;;;;4819313;29;20053;-68
2020/12/11 14:50:47;;;;;;;5.72;3.83;;;;;;;;;;4818918;29;21077;-68
2020/12/11 14:53:14;;;;;;;4.78;3.72;;;;;;;;;;4817698;29;20048;-68
2020/12/11 14:55:40;;;;;;;10.20;4.10;;;;;;;;;;4819766;29;20054;-68
2020/12/11 14:58:07;;;;;;;7.13;4.30;;;;;;;;;;4819599;29;20418;-68
2020/12/11 15:00:33;;;;;;;6.23;3.83;;;;;;;;;;4818936;29;20065;-68
2020/12/11 15:02:59;;;;;;;7.05;4.13;;;;;;;;;;4819311;29;20461;-69
2020/12/11 15:05:26;;;;;;;6.65;4.18;;;;;;;;;;4819501;29;20123;-68
2020/12/11 15:07:54;;;;;;;10.82;4.10;;;;;;;;;;4819852;29;20050;-68
2020/12/11 15:10:20;;;;;;;6.35;4.05;;;;;;;;;;4815597;29;20047;-68
2020/12/11 15:12:46;;;;;;;7.43;4.22;;;;;;;;;;4823310;29;20060;-68
2020/12/11 15:15:12;;;;;;;6.90;4.35;;;;;;;;;;4822416;29;20070;-68
2020/12/11 15:17:38;;;;;;;8.02;4.03;;;;;;;;;;4823386;29;20050;-68
2020/12/11 15:20:05;;;;;;;7.53;4.47;;;;;;;;;;4822637;29;20053;-68
2020/12/11 15:22:31;;;;;;;6.95;3.95;;;;;;;;;;4823486;29;20403;-68
2020/12/11 15:24:57;;;;;;;7.82;4.47;;;;;;;;;;4823219;29;20054;-68
2020/12/11 15:27:24;;;;;;;6.68;4.18;;;;;;;;;;4821021;29;20115;-68
2020/12/11 15:29:50;;;;;;;9.85;4.40;;;;;;;;;;4822730;29;20097;-68
2020/12/11 15:32:16;;;;;;;5.20;3.38;;;;;;;;;;4822092;29;20123;-68
2020/12/11 15:34:44;;;;;;;6.10;3.85;;;;;;;;;;4822184;29;20053;-68
2020/12/11 15:37:12;;;;;;;6.63;3.95;;;;;;;;;;4822490;29;20054;-68
2020/12/11 15:39:38;;;;;;;6.77;4.23;;;;;;;;;;4820478;29;20069;-68